»·PEaware :: N333ZS KSBA-KBUR

N333ZS :: KSBA-KBUR

FLIGHT INFORMATION

Flight Status: Arrived
Operator: Privately registered:
United States
More flights under this callsign
Pilot: Judd H. (29974)
Aircraft: CESSNA 182 SKYLANE
(C182)
More flights by this aircraft type
Origin: KSBA Santa Barbara Mun
United States
Destination: KBUR Bob Hope-Burbank
United States
More flights between these airports :: More routes between these airports
Route: VTU
File this flight plan on PilotEdge
Remarks:
Altitude:
(Current/Filed)
3,500ft
Speed:
(Current/Filed)
120kts
Departed: 25-Aug-20 12:28 PM
Arrived: 25-Aug-20 01:07 PM
Distance/Time
Traveled:
75nm/0:39
Distance/Time
To Go:
Arrived

Flight Plot

Page will automatically refresh every two minutes.

Flight plan parsing failed; only flown route is shown


Map Options




Map Legend


Flown Route
Filed Route
Departure Airport
Arrival Airport
Navaid (VOR, NDB)
Fix

Horizontal Profiles

Position Reports

Time Latitude Longitude Heading Altitude Ground
Speed
25-Aug-20 12:17 34.422120 -119.836743 73 13ft 0kts
25-Aug-20 12:18 34.422120 -119.836741 73 13ft 0kts
25-Aug-20 12:19 34.422121 -119.836739 73 13ft 0kts
25-Aug-20 12:20 34.422121 -119.836738 73 13ft 0kts
25-Aug-20 12:21 34.422121 -119.836736 73 13ft 0kts
25-Aug-20 12:22 34.422122 -119.836735 73 13ft 0kts
25-Aug-20 12:23 34.422122 -119.836734 73 13ft 0kts
25-Aug-20 12:24 34.422362 -119.836661 346 13ft 11kts
25-Aug-20 12:25 34.427869 -119.838730 345 13ft 21kts
25-Aug-20 12:26 34.430538 -119.839873 254 13ft 8kts
25-Aug-20 12:27 34.417457 -119.835819 168 319ft 99kts
25-Aug-20 12:28 34.386866 -119.827373 173 1138ft 119kts
25-Aug-20 12:29 34.367825 -119.798498 110 1539ft 129kts
25-Aug-20 12:30 34.362721 -119.753730 87 1586ft 139kts
25-Aug-20 12:31 34.363162 -119.706668 97 1626ft 134kts
25-Aug-20 12:32 34.355066 -119.666113 100 2110ft 120kts
25-Aug-20 12:33 34.372701 -119.633894 48 2640ft 116kts
25-Aug-20 12:34 34.392346 -119.601355 56 2897ft 130kts
25-Aug-20 12:35 34.396727 -119.563253 112 3347ft 114kts
25-Aug-20 12:36 34.382144 -119.526813 121 3501ft 128kts
25-Aug-20 12:37 34.362653 -119.489633 124 3495ft 133kts
25-Aug-20 12:38 34.342695 -119.451556 124 3494ft 133kts
25-Aug-20 12:39 34.321520 -119.414585 130 3484ft 133kts
25-Aug-20 12:40 34.298536 -119.379289 130 3474ft 133kts
25-Aug-20 12:41 34.275455 -119.343977 128 3475ft 133kts
25-Aug-20 12:42 34.253145 -119.307981 116 3467ft 135kts
25-Aug-20 12:43 34.234925 -119.268806 123 3476ft 134kts
25-Aug-20 12:44 34.215037 -119.230813 123 3474ft 134kts
25-Aug-20 12:45 34.202618 -119.189010 98 3477ft 135kts
25-Aug-20 12:46 34.197454 -119.143933 99 3476ft 135kts
25-Aug-20 12:47 34.195319 -119.098655 93 3476ft 135kts
25-Aug-20 12:48 34.188644 -119.054266 107 3476ft 134kts
25-Aug-20 12:49 34.178473 -119.010602 107 3475ft 134kts
25-Aug-20 12:50 34.168349 -118.967139 107 3473ft 134kts
25-Aug-20 12:51 34.158103 -118.923629 107 3473ft 134kts
25-Aug-20 12:52 34.147693 -118.880031 106 3473ft 135kts
25-Aug-20 12:53 34.137164 -118.836572 107 3471ft 135kts
25-Aug-20 12:54 34.133639 -118.791396 92 3471ft 135kts
25-Aug-20 12:55 34.131639 -118.745868 92 3470ft 135kts
25-Aug-20 12:56 34.133570 -118.700562 85 3470ft 135kts
25-Aug-20 12:57 34.136699 -118.655131 85 3470ft 135kts
25-Aug-20 12:58 34.140607 -118.609935 63 3416ft 138kts
25-Aug-20 12:59 34.168894 -118.577572 44 3138ft 142kts
25-Aug-20 13:00 34.195235 -118.543747 58 2653ft 134kts
25-Aug-20 13:01 34.196662 -118.503920 84 2317ft 112kts
25-Aug-20 13:02 34.198519 -118.467842 85 2092ft 105kts
25-Aug-20 13:03 34.198535 -118.433497 88 1824ft 101kts
25-Aug-20 13:04 34.198291 -118.400243 90 1343ft 95kts
25-Aug-20 13:05 34.197763 -118.369515 86 770ft 84kts
25-Aug-20 13:07 34.197966 -118.355601 48 724ft 17kts
25-Aug-20 13:08 34.198852 -118.357383 271 724ft 23kts
25-Aug-20 13:09 34.199755 -118.358575 7 724ft 7kts

Navigation Log

Ident Type
Flight plan parsing failed, navigation log unavailable